Big Bear Station Historical Data
Daily Summary for March 7, 2018 Units:  English    Metric   Both
Next Day »
Daily Weekly Monthly Yearly Custom
  High: Low: Average:
Temperature: 50.4 °F 24.8 °F 37.9 °F
Dew Point: 31.3 °F 6.8 °F 18 °F
Humidity: 84% 22% 50%
Wind Speed: 4.7mph 0.0mph 0.8mph
Wind Gust: -999.0mph - -
Wind- - WNW
Pressure: 23.55 in 23.49 in -
Precipitation: 0.00 in    
Historical Graphs
 
 
Tabular Data for March 7, 2018
Time Temperature Dew Point Pressure Wind Wind Speed Wind Gust Humidity Rainfall Rate (Hourly)
00:11 25.9 °F 18.1 °F 23.54 in Calm   -999.0 mph 72% 0 in
00:26 26.2 °F 19.0 °F 23.55 in Calm   -999.0 mph 74% 0 in
00:41 26.2 °F 19.4 °F 23.55 in Calm   -999.0 mph 75% 0 in
00:56 25.7 °F 19.5 °F 23.55 in Calm   -999.0 mph 77% 0 in
01:11 26.1 °F 19.6 °F 23.54 in Calm   -999.0 mph 76% 0 in
01:27 25.5 °F 19.6 °F 23.54 in Calm   -999.0 mph 78% 0 in
01:42 25.7 °F 19.8 °F 23.54 in Calm   -999.0 mph 78% 0 in
01:57 25.2 °F 19.9 °F 23.53 in Calm   -999.0 mph 80% 0 in
02:12 25.3 °F 19.7 °F 23.52 in Calm   -999.0 mph 79% 0 in
02:27 24.8 °F 18.9 °F 23.51 in Calm   -999.0 mph 78% 0 in
02:43 25.2 °F 19.6 °F 23.51 in Calm   -999.0 mph 79% 0 in
02:58 25.3 °F 19.4 °F 23.51 in Calm   -999.0 mph 78% 0 in
03:13 25.5 °F 19.6 °F 23.50 in Calm   -999.0 mph 78% 0 in
03:28 25.3 °F 19.4 °F 23.49 in Calm   -999.0 mph 78% 0 in
03:43 25.3 °F 19.4 °F 23.50 in Calm   -999.0 mph 78% 0 in
03:59 25.5 °F 20.2 °F 23.50 in Calm   -999.0 mph 80% 0 in
04:14 25.9 °F 21.4 °F 23.50 in Calm   -999.0 mph 83% 0 in
04:29 25.9 °F 21.7 °F 23.50 in Calm   -999.0 mph 84% 0 in
04:44 26.6 °F 22.1 °F 23.50 in Calm   -999.0 mph 83% 0 in
04:59 26.6 °F 22.1 °F 23.50 in Calm   -999.0 mph 83% 0 in
05:15 26.6 °F 21.8 °F 23.51 in Calm   -999.0 mph 82% 0 in
05:30 26.8 °F 22.0 °F 23.51 in Calm   -999.0 mph 82% 0 in
05:45 26.4 °F 21.7 °F 23.50 in Calm   -999.0 mph 82% 0 in
06:00 26.8 °F 21.8 °F 23.50 in Calm   -999.0 mph 81% 0 in
06:15 27.1 °F 22.0 °F 23.50 in Calm   -999.0 mph 81% 0 in
06:31 27.7 °F 22.0 °F 23.51 in Calm   -999.0 mph 79% 0 in
06:46 28.0 °F 22.6 °F 23.51 in Calm   -999.0 mph 80% 0 in
07:01 28.6 °F 23.2 °F 23.51 in Calm   -999.0 mph 80% 0 in
07:16 30.0 °F 24.3 °F 23.52 in Calm   -999.0 mph 79% 0 in
07:32 30.4 °F 24.7 °F 23.53 in Calm   -999.0 mph 79% 0 in
07:47 31.3 °F 24.0 °F 23.53 in Calm   -999.0 mph 74% 0 in
08:02 32.7 °F 24.3 °F 23.53 in Calm   -999.0 mph 71% 0 in
08:17 34.2 °F 27.4 °F 23.53 in Calm   -999.0 mph 76% 0 in
08:33 36.1 °F 28.9 °F 23.54 in Calm   -999.0 mph 75% 0 in
08:48 38.1 °F 27.0 °F 23.53 in Calm   -999.0 mph 64% 0 in
09:03 40.3 °F 28.7 °F 23.54 in Calm   -999.0 mph 63% 0 in
09:19 41.7 °F 29.2 °F 23.53 in Calm   -999.0 mph 61% 0 in
09:34 43.3 °F 27.3 °F 23.53 in Calm   -999.0 mph 53% 0 in
09:49 44.8 °F 31.3 °F 23.54 in Calm   -999.0 mph 59% 0 in
10:04 46.4 °F 25.7 °F 23.53 in Calm   -999.0 mph 44% 0 in
10:19 48.2 °F 20.4 °F 23.53 in Calm   -999.0 mph 33% 0 in
10:35 48.0 °F 11.9 °F 23.53 in North 3.2 mph -999.0 mph 23% 0 in
10:50 47.8 °F 17.1 °F 23.53 in SSW 2.2 mph -999.0 mph 29% 0 in
11:05 47.7 °F 17.8 °F 23.53 in NW 1.7 mph -999.0 mph 30% 0 in
11:20 48.0 °F 15.6 °F 23.53 in WNW 2.7 mph -999.0 mph 27% 0 in
11:36 48.0 °F 13.8 °F 23.53 in NW 1.7 mph -999.0 mph 25% 0 in
11:51 48.2 °F 14.0 °F 23.52 in NW 3.2 mph -999.0 mph 25% 0 in
12:06 48.7 °F 12.5 °F 23.52 in NW 4.7 mph -999.0 mph 23% 0 in
12:22 48.2 °F 14.9 °F 23.52 in ESE 2.7 mph -999.0 mph 26% 0 in
12:37 48.9 °F 13.7 °F 23.51 in WNW 2.7 mph -999.0 mph 24% 0 in
12:53 49.6 °F 12.3 °F 23.51 in WSW 2.2 mph -999.0 mph 22% 0 in
13:08 50.0 °F 13.6 °F 23.50 in NNW 3.2 mph -999.0 mph 23% 0 in
13:24 50.4 °F 14.9 °F 23.51 in NW 3.7 mph -999.0 mph 24% 0 in
13:40 50.0 °F 15.5 °F 23.50 in NW 3.2 mph -999.0 mph 25% 0 in
13:55 49.6 °F 12.3 °F 23.50 in NNW 1.7 mph -999.0 mph 22% 0 in
14:11 49.5 °F 12.2 °F 23.50 in NNW 2.2 mph -999.0 mph 22% 0 in
14:26 49.8 °F 13.4 °F 23.49 in NNW 2.2 mph -999.0 mph 23% 0 in
14:41 50.2 °F 14.8 °F 23.49 in NW 1.7 mph -999.0 mph 24% 0 in
14:56 49.3 °F 14.9 °F 23.49 in NW 1.7 mph -999.0 mph 25% 0 in
15:11 48.9 °F 17.2 °F 23.49 in WNW 3.2 mph -999.0 mph 28% 0 in
15:27 48.9 °F 17.2 °F 23.50 in NNW 3.7 mph -999.0 mph 28% 0 in
15:42 48.7 °F 16.2 °F 23.49 in NNW 2.2 mph -999.0 mph 27% 0 in
15:58 48.2 °F 18.2 °F 23.49 in NW 3.7 mph -999.0 mph 30% 0 in
16:14 47.7 °F 18.5 °F 23.49 in NNW 1.1 mph -999.0 mph 31% 0 in
16:29 47.3 °F 19.6 °F 23.49 in West 1.7 mph -999.0 mph 33% 0 in
16:45 46.8 °F 19.2 °F 23.49 in NW 2.7 mph -999.0 mph 33% 0 in
17:00 46.0 °F 16.3 °F 23.50 in Calm   -999.0 mph 30% 0 in
17:15 45.3 °F 14.9 °F 23.49 in Calm   -999.0 mph 29% 0 in
17:30 44.8 °F 12.8 °F 23.50 in Calm   -999.0 mph 27% 0 in
17:45 44.2 °F 10.6 °F 23.49 in West 1.7 mph -999.0 mph 25% 0 in
18:01 43.2 °F 16.0 °F 23.50 in Calm   -999.0 mph 33% 0 in
18:16 42.3 °F 13.8 °F 23.50 in Calm   -999.0 mph 31% 0 in
18:31 41.7 °F 17.3 °F 23.49 in Calm   -999.0 mph 37% 0 in
18:46 41.9 °F 16.9 °F 23.51 in SSE 1.1 mph -999.0 mph 36% 0 in
19:01 41.5 °F 14.5 °F 23.50 in Calm   -999.0 mph 33% 0 in
19:17 41.7 °F 12.5 °F 23.50 in Calm   -999.0 mph 30% 0 in
19:32 41.5 °F 13.1 °F 23.51 in Calm   -999.0 mph 31% 0 in
19:47 41.5 °F 13.1 °F 23.51 in Calm   -999.0 mph 31% 0 in
20:02 41.0 °F 15.4 °F 23.51 in SSW 2.2 mph -999.0 mph 35% 0 in
20:17 40.5 °F 13.6 °F 23.52 in Calm   -999.0 mph 33% 0 in
20:33 40.5 °F 15.6 °F 23.52 in North 2.2 mph -999.0 mph 36% 0 in
20:48 40.8 °F 13.2 °F 23.52 in NW 4.7 mph -999.0 mph 32% 0 in
21:03 41.4 °F 12.3 °F 23.52 in Calm   -999.0 mph 30% 0 in
21:19 40.6 °F 13.7 °F 23.52 in Calm   -999.0 mph 33% 0 in
21:34 38.5 °F 15.1 °F 23.53 in SSE 1.7 mph -999.0 mph 38% 0 in
21:51 38.8 °F 6.8 °F 23.52 in Calm   -999.0 mph 26% 0 in
22:06 37.8 °F 11.2 °F 23.53 in Calm   -999.0 mph 33% 0 in
22:21 36.7 °F 10.9 °F 23.52 in Calm   -999.0 mph 34% 0 in
22:37 35.6 °F 13.1 °F 23.53 in Calm   -999.0 mph 39% 0 in
22:52 34.7 °F 12.8 °F 23.53 in Calm   -999.0 mph 40% 0 in
23:07 34.3 °F 13.0 °F 23.53 in Calm   -999.0 mph 41% 0 in
23:22 34.0 °F 15.9 °F 23.53 in Calm   -999.0 mph 47% 0 in
23:38 32.9 °F 17.2 °F 23.53 in Calm   -999.0 mph 52% 0 in
23:53 32.7 °F 17.9 °F 23.53 in Calm   -999.0 mph 54% 0 in
Big Bear CA Weather